createdAt,value
2024-01-20T00:02:24.866Z,65.48
2024-01-20T00:04:51.766Z,65.28
2024-01-20T00:07:18.598Z,65.53
2024-01-20T00:09:50.235Z,65.38
2024-01-20T00:12:18.123Z,65.21
2024-01-20T00:14:44.869Z,65.56
2024-01-20T00:17:20.912Z,65.35
2024-01-20T00:19:54.104Z,65.46
2024-01-20T00:22:21.987Z,65.40
2024-01-20T00:24:48.881Z,65.63
2024-01-20T00:27:16.273Z,65.75
2024-01-20T00:29:42.932Z,65.46
2024-01-20T00:32:09.793Z,65.39
2024-01-20T00:34:50.576Z,65.81
2024-01-20T00:37:23.199Z,65.52
2024-01-20T00:39:49.690Z,65.54
2024-01-20T00:42:16.132Z,65.79
2024-01-20T00:44:42.991Z,65.67
2024-01-20T00:47:09.557Z,65.64
2024-01-20T00:49:36.215Z,65.77
2024-01-20T00:52:02.916Z,65.57
2024-01-20T00:54:29.317Z,65.98
2024-01-20T00:56:55.910Z,65.53
2024-01-20T00:59:22.392Z,65.60
2024-01-20T01:01:48.823Z,65.67
2024-01-20T01:04:15.224Z,65.71
2024-01-20T01:06:42.329Z,65.82
2024-01-20T01:09:09.258Z,65.46
2024-01-20T01:11:35.727Z,65.76
2024-01-20T01:14:02.320Z,65.76
2024-01-20T01:16:28.833Z,65.31
2024-01-20T01:18:55.230Z,65.58
2024-01-20T01:21:21.839Z,65.67
2024-01-20T01:23:48.257Z,65.33
2024-01-20T01:26:16.163Z,65.49
2024-01-20T01:28:42.724Z,65.17
2024-01-20T01:31:09.498Z,65.17
2024-01-20T01:33:37.595Z,65.46
2024-01-20T01:36:05.023Z,65.37
2024-01-20T01:38:31.762Z,65.25
2024-01-20T01:40:58.788Z,65.44
2024-01-20T01:43:26.354Z,65.46
2024-01-20T01:45:52.971Z,65.31
2024-01-20T01:48:19.654Z,65.19
2024-01-20T01:50:46.273Z,65.23
2024-01-20T01:53:14.800Z,65.27
2024-01-20T01:55:41.971Z,64.91
2024-01-20T01:58:08.543Z,65.17
2024-01-20T02:00:35.213Z,65.37
2024-01-20T02:03:02.420Z,65.00
2024-01-20T02:05:29.035Z,65.14
2024-01-20T02:07:58.361Z,65.16
2024-01-20T02:10:25.166Z,64.83
2024-01-20T02:12:52.785Z,64.81
2024-01-20T02:15:19.494Z,65.07
2024-01-20T02:17:53.626Z,64.53
2024-01-20T02:20:20.852Z,64.79
2024-01-20T02:22:47.364Z,64.74
2024-01-20T02:25:13.869Z,64.87
2024-01-20T02:27:40.531Z,64.74
2024-01-20T02:30:07.830Z,64.68
2024-01-20T02:32:34.518Z,64.87
2024-01-20T02:35:01.120Z,64.75
2024-01-20T02:37:27.553Z,64.52
2024-01-20T02:39:54.070Z,64.69
2024-01-20T02:42:20.574Z,64.56
2024-01-20T02:44:47.036Z,64.34
2024-01-20T02:47:13.510Z,64.53
2024-01-20T02:49:40.379Z,64.53
2024-01-20T02:52:07.038Z,64.46
2024-01-20T02:54:33.781Z,64.36
2024-01-20T02:57:00.525Z,64.30
2024-01-20T02:59:26.937Z,64.47
2024-01-20T03:01:53.490Z,64.22
2024-01-20T03:04:19.973Z,64.44
2024-01-20T03:06:46.452Z,64.34
2024-01-20T03:09:16.270Z,64.76
2024-01-20T03:11:46.094Z,64.54
2024-01-20T03:14:12.933Z,64.39
2024-01-20T03:16:39.589Z,64.45
2024-01-20T03:19:07.361Z,64.49
2024-01-20T03:21:34.951Z,64.23
2024-01-20T03:24:01.956Z,64.13
2024-01-20T03:26:28.670Z,64.30
2024-01-20T03:28:55.072Z,64.12
2024-01-20T03:31:21.583Z,64.34
2024-01-20T03:33:48.081Z,64.10
2024-01-20T03:36:14.728Z,64.13
2024-01-20T03:38:41.146Z,64.43
2024-01-20T03:41:07.604Z,64.27
2024-01-20T03:43:34.033Z,64.15
2024-01-20T03:46:00.489Z,64.29
2024-01-20T03:48:27.245Z,64.35
2024-01-20T03:50:53.795Z,64.50
2024-01-20T03:53:20.228Z,64.37
2024-01-20T03:55:46.714Z,64.17
2024-01-20T03:58:13.141Z,64.27
2024-01-20T04:00:39.558Z,64.28
2024-01-20T04:03:06.129Z,64.36
2024-01-20T04:05:32.603Z,64.16
2024-01-20T04:07:59.007Z,64.15
2024-01-20T04:10:25.487Z,64.08
2024-01-20T04:12:51.899Z,64.39
2024-01-20T04:15:18.405Z,64.37
2024-01-20T04:17:45.135Z,64.25
2024-01-20T04:20:11.915Z,64.18
2024-01-20T04:22:38.314Z,64.29
2024-01-20T04:25:05.283Z,64.35
2024-01-20T04:27:31.829Z,64.34
2024-01-20T04:29:58.320Z,64.25
2024-01-20T04:32:24.843Z,64.20
2024-01-20T04:34:51.236Z,64.61
2024-01-20T04:37:17.696Z,64.46
2024-01-20T04:39:44.312Z,64.59
2024-01-20T04:42:10.791Z,64.63
2024-01-20T04:44:37.256Z,64.56
2024-01-20T04:47:04.498Z,64.19
2024-01-20T04:49:31.062Z,64.50
2024-01-20T04:52:01.512Z,64.69
2024-01-20T04:54:28.380Z,64.63
2024-01-20T04:56:54.904Z,64.76
2024-01-20T04:59:21.308Z,64.82
2024-01-20T05:01:49.399Z,64.55
2024-01-20T05:04:16.157Z,64.62
2024-01-20T05:06:46.674Z,64.44
2024-01-20T05:09:14.511Z,64.65
2024-01-20T05:11:41.099Z,64.62
2024-01-20T05:14:08.700Z,64.75
2024-01-20T05:16:35.399Z,64.45
2024-01-20T05:19:02.964Z,64.58
2024-01-20T05:21:29.621Z,64.71
2024-01-20T05:23:58.098Z,64.34
2024-01-20T05:26:25.115Z,64.50
2024-01-20T05:28:51.551Z,64.49
2024-01-20T05:31:18.048Z,64.80
2024-01-20T05:33:44.673Z,64.88
2024-01-20T05:36:12.824Z,64.88
2024-01-20T05:38:39.866Z,64.65
2024-01-20T05:41:08.298Z,64.76
2024-01-20T05:43:34.807Z,64.67
2024-01-20T05:46:05.968Z,64.34
2024-01-20T05:48:33.936Z,64.58
2024-01-20T05:51:00.473Z,64.59
2024-01-20T05:53:29.079Z,64.56
2024-01-20T05:55:55.746Z,64.63
2024-01-20T05:58:22.315Z,64.68
2024-01-20T06:00:49.105Z,64.48
2024-01-20T06:03:15.666Z,64.65
2024-01-20T06:05:42.194Z,64.42
2024-01-20T06:08:08.813Z,64.51
2024-01-20T06:10:35.285Z,64.32
2024-01-20T06:13:01.712Z,64.65
2024-01-20T06:15:28.437Z,64.56
2024-01-20T06:17:55.050Z,64.20
2024-01-20T06:20:21.537Z,64.47
2024-01-20T06:22:48.077Z,64.51
2024-01-20T06:25:14.592Z,64.34
2024-01-20T06:27:41.055Z,64.33
2024-01-20T06:30:08.179Z,64.19
2024-01-20T06:32:34.746Z,64.35
2024-01-20T06:35:01.178Z,64.40
2024-01-20T06:37:27.734Z,64.51
2024-01-20T06:39:54.134Z,64.49
2024-01-20T06:42:20.598Z,64.67
2024-01-20T06:44:47.019Z,64.71
2024-01-20T06:47:13.672Z,64.74
2024-01-20T06:49:40.990Z,64.81
2024-01-20T06:52:08.181Z,64.84
2024-01-20T06:54:34.796Z,64.91
2024-01-20T06:57:01.336Z,64.83
2024-01-20T06:59:27.764Z,64.87
2024-01-20T07:01:54.166Z,64.65
2024-01-20T07:04:20.633Z,64.84
2024-01-20T07:06:47.213Z,64.71
2024-01-20T07:09:14.745Z,64.86
2024-01-20T07:11:41.491Z,65.09
2024-01-20T07:14:08.182Z,65.06
2024-01-20T07:16:34.650Z,65.12
2024-01-20T07:19:01.238Z,65.37
2024-01-20T07:21:27.900Z,64.89
2024-01-20T07:23:54.391Z,65.09
2024-01-20T07:26:20.920Z,64.98
2024-01-20T07:28:47.557Z,64.91
2024-01-20T07:31:14.044Z,65.31
2024-01-20T07:33:41.957Z,65.10
2024-01-20T07:36:08.711Z,65.32
2024-01-20T07:38:35.146Z,65.07
2024-01-20T07:41:02.379Z,65.15
2024-01-20T07:43:28.981Z,65.11
2024-01-20T07:45:55.575Z,65.41
2024-01-20T07:48:22.750Z,65.27
2024-01-20T07:50:49.724Z,64.98
2024-01-20T07:53:16.243Z,65.10
2024-01-20T07:55:43.529Z,65.47
2024-01-20T07:58:10.036Z,65.04
2024-01-20T08:00:36.761Z,65.33
2024-01-20T08:03:04.254Z,65.32
2024-01-20T08:05:33.640Z,65.35
2024-01-20T08:08:01.701Z,65.20
2024-01-20T08:10:28.124Z,65.08
2024-01-20T08:12:54.577Z,65.51
2024-01-20T08:15:21.301Z,65.26
2024-01-20T08:17:47.859Z,65.11
2024-01-20T08:20:14.393Z,65.17
2024-01-20T08:22:40.802Z,65.19
2024-01-20T08:25:07.684Z,65.08
2024-01-20T08:27:34.217Z,65.21
2024-01-20T08:30:00.891Z,65.30
2024-01-20T08:32:27.406Z,65.22
2024-01-20T08:34:53.934Z,65.37
2024-01-20T08:37:20.355Z,65.20
2024-01-20T08:39:46.736Z,65.19
2024-01-20T08:42:13.210Z,64.93
2024-01-20T08:44:39.869Z,64.99
2024-01-20T08:47:06.378Z,65.31
2024-01-20T08:49:33.032Z,65.15
2024-01-20T08:51:59.428Z,65.09
2024-01-20T08:54:25.861Z,65.13
2024-01-20T08:56:52.349Z,64.92
2024-01-20T08:59:20.582Z,65.24
2024-01-20T09:01:47.091Z,65.11
2024-01-20T09:04:14.777Z,64.94
2024-01-20T09:06:41.417Z,64.82
2024-01-20T09:09:08.038Z,64.63
2024-01-20T09:11:34.577Z,64.98
2024-01-20T09:14:01.013Z,65.01
2024-01-20T09:16:27.429Z,65.13
2024-01-20T09:18:54.094Z,65.14
2024-01-20T09:21:20.676Z,64.93
2024-01-20T09:23:47.190Z,65.05
2024-01-20T09:26:13.636Z,65.35
2024-01-20T09:28:40.062Z,64.85
2024-01-20T09:31:06.500Z,64.71
2024-01-20T09:33:33.164Z,64.75
2024-01-20T09:35:59.780Z,64.42
2024-01-20T09:38:29.468Z,64.45
2024-01-20T09:40:59.752Z,64.53
2024-01-20T09:43:26.541Z,64.79
2024-01-20T09:45:53.838Z,64.63
2024-01-20T09:48:20.677Z,64.59
2024-01-20T09:50:48.657Z,64.88
2024-01-20T09:53:17.345Z,64.74
2024-01-20T09:55:45.777Z,64.83
2024-01-20T09:58:13.509Z,64.66
2024-01-20T10:00:41.858Z,64.67
2024-01-20T10:03:13.206Z,64.67
2024-01-20T10:05:40.034Z,64.58
2024-01-20T10:08:07.350Z,64.13
2024-01-20T10:10:34.877Z,64.09
2024-01-20T10:13:04.516Z,64.01
2024-01-20T10:15:34.284Z,63.91
2024-01-20T10:18:09.292Z,63.96
2024-01-20T10:20:37.562Z,64.02
2024-01-20T10:23:06.314Z,64.09
2024-01-20T10:25:33.103Z,63.71
2024-01-20T10:28:00.163Z,64.04
2024-01-20T10:30:27.301Z,64.41
2024-01-20T10:33:04.359Z,64.10
2024-01-20T10:35:36.468Z,64.32
2024-01-20T10:38:10.274Z,64.51
2024-01-20T10:40:40.011Z,64.36
2024-01-20T10:43:15.045Z,64.42
2024-01-20T10:45:47.735Z,64.51
2024-01-20T10:48:18.365Z,64.23
2024-01-20T10:50:47.551Z,63.98
2024-01-20T10:53:14.219Z,64.02
2024-01-20T10:55:42.110Z,63.80
2024-01-20T10:58:09.756Z,64.10
2024-01-20T11:00:38.713Z,64.16
2024-01-20T11:03:07.125Z,64.19
2024-01-20T11:05:34.036Z,64.18
2024-01-20T11:08:09.737Z,63.75
2024-01-20T11:10:43.008Z,63.95
2024-01-20T11:13:11.470Z,63.79
2024-01-20T11:15:40.658Z,64.05
2024-01-20T11:18:18.515Z,63.59
2024-01-20T11:20:58.176Z,64.10
2024-01-20T11:23:25.726Z,64.31
2024-01-20T11:25:52.467Z,63.80
2024-01-20T11:28:33.128Z,63.81
2024-01-20T11:31:00.739Z,63.54
2024-01-20T11:33:27.789Z,63.71
2024-01-20T11:35:54.593Z,63.79
2024-01-20T11:38:21.970Z,63.75
2024-01-20T11:40:58.932Z,63.80
2024-01-20T11:43:25.360Z,63.83
2024-01-20T11:45:51.831Z,63.67
2024-01-20T11:48:19.459Z,63.49
2024-01-20T11:50:46.147Z,63.48
2024-01-20T11:53:12.757Z,63.91
2024-01-20T11:55:39.200Z,63.87
2024-01-20T11:58:05.604Z,63.48
2024-01-20T12:00:32.250Z,63.17
2024-01-20T12:03:00.394Z,63.14
2024-01-20T12:05:27.009Z,62.71
2024-01-20T12:07:53.688Z,62.48
2024-01-20T12:10:20.228Z,62.43
2024-01-20T12:12:46.650Z,62.87
2024-01-20T12:15:15.998Z,62.33
2024-01-20T12:17:42.609Z,62.65
2024-01-20T12:20:10.374Z,62.76
2024-01-20T12:22:37.031Z,62.71
2024-01-20T12:25:04.094Z,62.54
2024-01-20T12:27:30.832Z,62.28
2024-01-20T12:29:57.322Z,62.34
2024-01-20T12:32:24.641Z,62.37
2024-01-20T12:34:51.158Z,62.12
2024-01-20T12:37:17.676Z,61.82
2024-01-20T12:39:44.380Z,61.58
2024-01-20T12:42:10.888Z,61.65
2024-01-20T12:44:37.554Z,62.23
2024-01-20T12:47:04.226Z,62.40
2024-01-20T12:49:31.750Z,62.45
2024-01-20T12:51:58.450Z,62.40
2024-01-20T12:54:25.128Z,62.32
2024-01-20T12:56:51.788Z,62.49
2024-01-20T12:59:18.195Z,62.25
2024-01-20T13:01:44.851Z,62.42
2024-01-20T13:04:11.358Z,61.90
2024-01-20T13:06:37.817Z,61.88
2024-01-20T13:09:04.770Z,62.24
2024-01-20T13:11:31.714Z,61.84
2024-01-20T13:13:59.736Z,61.53
2024-01-20T13:16:26.510Z,61.68
2024-01-20T13:18:54.272Z,61.80
2024-01-20T13:21:23.253Z,61.54
2024-01-20T13:23:50.351Z,61.48
2024-01-20T13:26:17.850Z,61.75
2024-01-20T13:28:47.038Z,61.54
2024-01-20T13:31:13.516Z,61.56
2024-01-20T13:33:39.981Z,61.10
2024-01-20T13:36:06.820Z,60.96
2024-01-20T13:38:33.580Z,60.67
2024-01-20T13:40:59.987Z,60.32
2024-01-20T13:43:26.546Z,59.92
2024-01-20T13:45:53.035Z,59.80
2024-01-20T13:48:19.628Z,59.63
2024-01-20T13:50:46.200Z,59.44
2024-01-20T13:53:12.623Z,59.51
2024-01-20T13:55:39.072Z,59.25
2024-01-20T13:58:05.493Z,59.39
2024-01-20T14:00:31.950Z,58.88
2024-01-20T14:02:58.490Z,59.02
2024-01-20T14:05:25.032Z,58.87
2024-01-20T14:07:51.466Z,59.14
2024-01-20T14:10:17.980Z,59.42
2024-01-20T14:12:44.460Z,59.59
2024-01-20T14:15:11.414Z,59.91
2024-01-20T14:17:37.969Z,59.50
2024-01-20T14:20:04.818Z,59.87
2024-01-20T14:22:31.359Z,59.35
2024-01-20T14:24:57.769Z,59.34
2024-01-20T14:27:24.239Z,59.54
2024-01-20T14:29:50.864Z,59.11
2024-01-20T14:32:17.299Z,59.21
2024-01-20T14:34:43.769Z,59.23
2024-01-20T14:37:10.422Z,59.04
2024-01-20T14:39:36.895Z,59.10
2024-01-20T14:42:03.710Z,58.56
2024-01-20T14:44:30.184Z,58.76
2024-01-20T14:46:56.587Z,58.36
2024-01-20T14:49:23.761Z,58.49
2024-01-20T14:51:50.411Z,58.44
2024-01-20T14:54:16.957Z,58.48
2024-01-20T14:56:43.384Z,58.19
2024-01-20T14:59:10.237Z,58.06
2024-01-20T15:01:38.040Z,58.41
2024-01-20T15:04:05.976Z,58.50
2024-01-20T15:06:33.132Z,58.50
2024-01-20T15:09:00.124Z,58.60
2024-01-20T15:11:26.832Z,58.34
2024-01-20T15:13:53.384Z,58.71
2024-01-20T15:16:20.064Z,58.68
2024-01-20T15:18:46.575Z,58.39
2024-01-20T15:21:13.140Z,58.41
2024-01-20T15:23:39.608Z,58.45
2024-01-20T15:26:06.139Z,58.60
2024-01-20T15:28:32.578Z,58.43
2024-01-20T15:30:59.020Z,58.91
2024-01-20T15:33:25.538Z,58.78
2024-01-20T15:35:52.118Z,58.80
2024-01-20T15:38:18.975Z,59.17
2024-01-20T15:40:45.420Z,59.21
2024-01-20T15:43:11.913Z,58.99
2024-01-20T15:45:38.868Z,58.77
2024-01-20T15:48:06.078Z,58.86
2024-01-20T15:50:32.639Z,59.02
2024-01-20T15:52:59.068Z,59.28
2024-01-20T15:55:25.515Z,58.90
2024-01-20T15:57:51.965Z,59.26
2024-01-20T16:00:18.462Z,59.26
2024-01-20T16:02:45.199Z,59.27
2024-01-20T16:05:11.681Z,59.48
2024-01-20T16:07:38.131Z,59.79
2024-01-20T16:10:05.037Z,59.49
2024-01-20T16:12:31.443Z,59.65
2024-01-20T16:14:58.978Z,59.78
2024-01-20T16:17:25.527Z,59.86
2024-01-20T16:19:52.046Z,59.66
2024-01-20T16:22:18.467Z,59.75
2024-01-20T16:24:45.081Z,59.88
2024-01-20T16:27:11.536Z,59.92
2024-01-20T16:29:37.960Z,59.69
2024-01-20T16:32:06.560Z,59.59
2024-01-20T16:34:33.187Z,59.69
2024-01-20T16:36:59.733Z,59.85
2024-01-20T16:39:26.273Z,59.47
2024-01-20T16:41:54.471Z,59.54
2024-01-20T16:44:20.943Z,59.78
2024-01-20T16:46:52.344Z,59.70
2024-01-20T16:49:19.977Z,59.85
2024-01-20T16:51:47.583Z,59.83
2024-01-20T16:54:15.160Z,59.72
2024-01-20T16:56:42.127Z,60.00
2024-01-20T16:59:10.404Z,59.97
2024-01-20T17:01:37.921Z,59.85
2024-01-20T17:04:04.777Z,59.75
2024-01-20T17:06:31.854Z,59.66
2024-01-20T17:08:58.468Z,59.68
2024-01-20T17:11:24.917Z,59.92
2024-01-20T17:13:54.320Z,59.62
2024-01-20T17:16:22.049Z,59.88
2024-01-20T17:18:48.599Z,59.83
2024-01-20T17:21:17.143Z,59.64
2024-01-20T17:23:44.699Z,59.65
2024-01-20T17:26:11.867Z,59.86
2024-01-20T17:28:38.370Z,59.67
2024-01-20T17:31:05.834Z,59.22
2024-01-20T17:33:32.702Z,59.46
2024-01-20T17:35:59.267Z,59.36
2024-01-20T17:38:25.771Z,59.54
2024-01-20T17:40:52.311Z,59.41
2024-01-20T17:43:18.797Z,59.20
2024-01-20T17:45:49.066Z,59.25
2024-01-20T17:48:16.494Z,59.26
2024-01-20T17:50:43.069Z,59.32
2024-01-20T17:53:09.470Z,59.34
2024-01-20T17:55:35.862Z,59.18
2024-01-20T17:58:02.462Z,59.16
2024-01-20T18:00:29.709Z,59.21
2024-01-20T18:02:56.298Z,58.99
2024-01-20T18:05:23.570Z,59.41
2024-01-20T18:07:51.076Z,59.24
2024-01-20T18:10:19.826Z,59.18
2024-01-20T18:12:47.149Z,59.04
2024-01-20T18:15:14.587Z,59.36
2024-01-20T18:17:42.750Z,59.05
2024-01-20T18:20:09.345Z,58.88
2024-01-20T18:22:36.004Z,58.96
2024-01-20T18:25:03.081Z,59.09
2024-01-20T18:27:29.547Z,59.08
2024-01-20T18:29:57.035Z,58.86
2024-01-20T18:32:25.077Z,58.93
2024-01-20T18:34:51.731Z,58.54
2024-01-20T18:37:18.305Z,58.63
2024-01-20T18:39:44.914Z,58.93
2024-01-20T18:42:11.444Z,58.59
2024-01-20T18:44:37.908Z,58.47
2024-01-20T18:47:05.453Z,58.16
2024-01-20T18:49:32.098Z,58.14
2024-01-20T18:52:00.828Z,57.84
2024-01-20T18:54:27.378Z,58.01
2024-01-20T18:56:54.460Z,57.65
2024-01-20T18:59:20.959Z,57.59
2024-01-20T19:01:47.871Z,57.56
2024-01-20T19:04:14.331Z,57.32
2024-01-20T19:06:40.909Z,57.42
2024-01-20T19:09:10.314Z,57.17
2024-01-20T19:11:36.757Z,57.36
2024-01-20T19:14:04.971Z,57.00
2024-01-20T19:16:33.540Z,56.85
2024-01-20T19:19:00.126Z,57.05
2024-01-20T19:21:26.633Z,57.06
2024-01-20T19:23:53.289Z,57.12
2024-01-20T19:26:19.695Z,56.98
2024-01-20T19:28:46.660Z,56.94
2024-01-20T19:31:14.392Z,56.87
2024-01-20T19:33:46.407Z,57.15
2024-01-20T19:36:13.192Z,56.70
2024-01-20T19:38:39.960Z,56.77
2024-01-20T19:41:06.382Z,56.73
2024-01-20T19:43:34.726Z,56.55
2024-01-20T19:46:01.198Z,56.81
2024-01-20T19:48:27.802Z,56.58
2024-01-20T19:50:57.504Z,56.33
2024-01-20T19:53:24.365Z,56.44
2024-01-20T19:55:51.398Z,56.57
2024-01-20T19:58:17.873Z,56.28
2024-01-20T20:00:49.086Z,56.35
2024-01-20T20:03:16.020Z,56.21
2024-01-20T20:05:45.468Z,56.17
2024-01-20T20:08:13.494Z,56.07
2024-01-20T20:10:39.963Z,55.66
2024-01-20T20:13:06.375Z,55.93
2024-01-20T20:15:33.152Z,55.94
2024-01-20T20:17:59.734Z,56.01
2024-01-20T20:20:26.309Z,55.79
2024-01-20T20:22:52.858Z,55.66
2024-01-20T20:25:19.468Z,55.56
2024-01-20T20:27:46.015Z,55.42
2024-01-20T20:30:12.920Z,55.60
2024-01-20T20:32:40.643Z,55.50
2024-01-20T20:35:07.498Z,55.45
2024-01-20T20:37:34.085Z,55.23
2024-01-20T20:40:00.525Z,55.56
2024-01-20T20:42:26.987Z,55.58
2024-01-20T20:44:53.892Z,55.54
2024-01-20T20:47:21.260Z,55.55
2024-01-20T20:49:49.347Z,55.55
2024-01-20T20:52:16.131Z,55.51
2024-01-20T20:54:42.574Z,55.78
2024-01-20T20:57:10.137Z,55.41
2024-01-20T20:59:37.499Z,55.46
2024-01-20T21:02:05.926Z,55.65
2024-01-20T21:04:32.566Z,55.27
2024-01-20T21:07:01.164Z,55.48
2024-01-20T21:09:27.737Z,55.66
2024-01-20T21:11:54.212Z,55.77
2024-01-20T21:14:20.930Z,55.57
2024-01-20T21:16:48.122Z,55.70
2024-01-20T21:19:14.848Z,55.80
2024-01-20T21:21:41.616Z,55.73
2024-01-20T21:24:09.769Z,55.66
2024-01-20T21:26:36.326Z,55.62
2024-01-20T21:29:03.002Z,55.44
2024-01-20T21:31:29.487Z,55.51
2024-01-20T21:33:56.097Z,55.65
2024-01-20T21:36:24.060Z,55.53
2024-01-20T21:38:50.634Z,55.41
2024-01-20T21:41:17.054Z,55.21
2024-01-20T21:43:43.509Z,54.87
2024-01-20T21:46:10.988Z,54.82
2024-01-20T21:48:38.015Z,54.93
2024-01-20T21:51:04.906Z,54.59
2024-01-20T21:53:31.361Z,54.47
2024-01-20T21:55:57.774Z,54.37
2024-01-20T21:58:24.226Z,54.30
2024-01-20T22:00:50.720Z,54.50
2024-01-20T22:03:17.234Z,54.47
2024-01-20T22:05:44.120Z,54.61
2024-01-20T22:08:10.612Z,54.74
2024-01-20T22:10:37.150Z,54.45
2024-01-20T22:13:03.703Z,54.29
2024-01-20T22:15:30.199Z,54.17
2024-01-20T22:17:56.769Z,54.20
2024-01-20T22:20:24.189Z,53.95
2024-01-20T22:22:51.104Z,53.98
2024-01-20T22:25:17.678Z,54.20
2024-01-20T22:27:44.136Z,54.10
2024-01-20T22:30:11.502Z,53.88
2024-01-20T22:32:39.282Z,53.45
2024-01-20T22:35:06.539Z,53.58
2024-01-20T22:37:33.534Z,53.51
2024-01-20T22:40:00.260Z,53.63
2024-01-20T22:42:26.783Z,53.60
2024-01-20T22:44:53.205Z,53.19
2024-01-20T22:47:19.666Z,53.26
2024-01-20T22:49:46.194Z,53.08
2024-01-20T22:52:12.691Z,52.87
2024-01-20T22:54:39.436Z,53.08
2024-01-20T22:57:07.501Z,52.57
2024-01-20T22:59:33.916Z,52.87
2024-01-20T23:02:00.383Z,52.85
2024-01-20T23:04:26.936Z,52.72
2024-01-20T23:06:53.662Z,53.06
2024-01-20T23:09:20.532Z,53.04
2024-01-20T23:11:47.108Z,53.09
2024-01-20T23:14:13.742Z,52.73
2024-01-20T23:16:40.254Z,52.60
2024-01-20T23:19:06.792Z,52.72
2024-01-20T23:21:33.262Z,52.76
2024-01-20T23:23:59.748Z,52.73
2024-01-20T23:26:26.553Z,52.72
2024-01-20T23:28:52.932Z,52.86
2024-01-20T23:31:19.427Z,52.64
2024-01-20T23:33:46.034Z,52.69
2024-01-20T23:36:13.510Z,52.52
2024-01-20T23:38:39.951Z,52.65
2024-01-20T23:41:06.632Z,52.74
2024-01-20T23:43:33.029Z,52.77
2024-01-20T23:45:59.499Z,52.65
2024-01-20T23:48:25.984Z,52.63
2024-01-20T23:50:52.370Z,52.25
2024-01-20T23:53:19.044Z,52.39
2024-01-20T23:55:45.611Z,52.23
2024-01-20T23:58:12.078Z,52.36
